Time;durP1;ratioP1;P1;durP2;ratioP2;P2;SDS_P1;SDS_P2;PMS_P1;PMS_P2;Temp;Humidity;BMP_temperature;BMP_pressure;BME280_temperature;BME280_humidity;BME280_pressure;Samples;Min_cycle;Max_cycle;Signal;HPM_P1;HPM_P2
2022/03/14 00:01:15;;;;;;;23.70;6.72;;;;;;;;;;4952377;28;20074;-33
2022/03/14 00:03:53;;;;;;;36.92;8.18;;;;;;;;;;4952017;28;20127;-33
2022/03/14 00:06:20;;;;;;;26.95;6.43;;;;;;;;;;4951643;29;20042;-33
2022/03/14 00:08:48;;;;;;;27.67;7.10;;;;;;;;;;4934768;29;20028;-32
2022/03/14 00:11:17;;;;;;;23.95;7.13;;;;;;;;;;4951663;28;20035;-33
2022/03/14 00:13:46;;;;;;;37.05;7.80;;;;;;;;;;4948400;28;20040;-33
2022/03/14 00:16:22;;;;;;;29.98;6.97;;;;;;;;;;4950651;28;20070;-33
2022/03/14 00:18:50;;;;;;;32.08;8.07;;;;;;;;;;4951639;28;20042;-33
2022/03/14 00:21:30;;;;;;;28.55;7.88;;;;;;;;;;4934840;29;20039;-33
2022/03/14 00:23:57;;;;;;;24.45;7.43;;;;;;;;;;4933251;29;20133;-33
2022/03/14 00:26:26;;;;;;;32.67;7.18;;;;;;;;;;4946964;28;20095;-34
2022/03/14 00:28:53;;;;;;;27.35;7.55;;;;;;;;;;4950583;28;20035;-34
2022/03/14 00:31:22;;;;;;;26.90;7.32;;;;;;;;;;4934116;29;20414;-34
2022/03/14 00:33:49;;;;;;;30.20;8.18;;;;;;;;;;4950753;28;20031;-34
2022/03/14 00:36:17;;;;;;;31.00;7.60;;;;;;;;;;4950053;29;20039;-34
2022/03/14 00:38:44;;;;;;;34.00;8.32;;;;;;;;;;4952015;29;20413;-34
2022/03/14 00:41:12;;;;;;;26.90;7.72;;;;;;;;;;4951905;28;20082;-35
2022/03/14 00:43:40;;;;;;;32.83;8.00;;;;;;;;;;4948465;28;20485;-34
2022/03/14 00:46:07;;;;;;;23.23;7.60;;;;;;;;;;4951800;28;20115;-35
2022/03/14 00:48:35;;;;;;;26.50;7.60;;;;;;;;;;4952785;28;20027;-35
2022/03/14 00:51:03;;;;;;;24.70;7.70;;;;;;;;;;4951961;28;20081;-34
2022/03/14 00:53:34;;;;;;;29.67;7.75;;;;;;;;;;4952947;28;20035;-35
2022/03/14 00:56:01;;;;;;;24.13;7.85;;;;;;;;;;4952762;28;20047;-34
2022/03/14 00:58:29;;;;;;;30.17;7.82;;;;;;;;;;4935495;29;20561;-34
2022/03/14 01:00:56;;;;;;;26.40;7.70;;;;;;;;;;4952893;28;20039;-34
2022/03/14 01:03:23;;;;;;;24.77;7.88;;;;;;;;;;4952853;28;20035;-34
2022/03/14 01:05:50;;;;;;;20.55;7.57;;;;;;;;;;4952412;28;20062;-34
2022/03/14 01:08:17;;;;;;;24.33;6.60;;;;;;;;;;4952682;29;20032;-34
2022/03/14 01:10:44;;;;;;;20.02;6.38;;;;;;;;;;4953184;28;20114;-34
2022/03/14 01:13:11;;;;;;;23.17;6.85;;;;;;;;;;4938197;28;20185;-34
2022/03/14 01:15:38;;;;;;;23.63;7.28;;;;;;;;;;4954761;28;20493;-34
2022/03/14 01:18:06;;;;;;;23.10;7.72;;;;;;;;;;4971728;28;20065;-34
2022/03/14 01:20:33;;;;;;;32.28;7.53;;;;;;;;;;4971233;28;20174;-34
2022/03/14 01:23:01;;;;;;;23.08;7.40;;;;;;;;;;4971707;28;20034;-34
2022/03/14 01:25:28;;;;;;;32.47;7.97;;;;;;;;;;4955079;28;20499;-34
2022/03/14 01:27:56;;;;;;;19.15;6.28;;;;;;;;;;4951930;29;20027;-34
2022/03/14 01:30:24;;;;;;;24.58;7.15;;;;;;;;;;4934143;28;20031;-35
2022/03/14 01:32:51;;;;;;;23.20;6.65;;;;;;;;;;4948993;28;20510;-33
2022/03/14 01:35:18;;;;;;;22.45;7.07;;;;;;;;;;4952597;28;20402;-32
2022/03/14 01:37:49;;;;;;;25.88;7.07;;;;;;;;;;4952290;28;20178;-32
2022/03/14 01:40:17;;;;;;;22.42;5.93;;;;;;;;;;4952006;28;20442;-32
2022/03/14 01:42:44;;;;;;;24.63;7.38;;;;;;;;;;4952697;28;20126;-33
2022/03/14 01:45:13;;;;;;;20.90;6.70;;;;;;;;;;4952211;28;20062;-32
2022/03/14 01:47:42;;;;;;;25.17;6.85;;;;;;;;;;4952501;28;20087;-33
2022/03/14 01:50:09;;;;;;;27.33;7.30;;;;;;;;;;4952734;28;20123;-32
2022/03/14 01:52:37;;;;;;;29.00;7.10;;;;;;;;;;4934794;29;20431;-33
2022/03/14 01:55:04;;;;;;;25.65;6.68;;;;;;;;;;4953007;28;20035;-33
2022/03/14 01:57:31;;;;;;;29.13;6.60;;;;;;;;;;4952490;28;20051;-33
2022/03/14 01:59:59;;;;;;;27.45;7.00;;;;;;;;;;4953247;28;20027;-33
2022/03/14 02:02:26;;;;;;;23.95;6.40;;;;;;;;;;4952640;28;20034;-33
2022/03/14 02:04:53;;;;;;;18.30;5.80;;;;;;;;;;4951842;28;20023;-33
2022/03/14 02:07:21;;;;;;;19.15;6.13;;;;;;;;;;4952531;28;20043;-33
2022/03/14 02:09:48;;;;;;;19.20;6.55;;;;;;;;;;4952432;29;20031;-33
2022/03/14 02:12:15;;;;;;;19.67;5.43;;;;;;;;;;4951540;28;20752;-33
2022/03/14 02:14:42;;;;;;;17.42;5.65;;;;;;;;;;4952673;28;20039;-33
2022/03/14 02:17:14;;;;;;;21.30;5.65;;;;;;;;;;4952848;28;20027;-33
2022/03/14 02:19:41;;;;;;;20.55;5.90;;;;;;;;;;4952817;28;20074;-33
2022/03/14 02:22:11;;;;;;;21.60;5.85;;;;;;;;;;4951883;28;20034;-33
2022/03/14 02:24:39;;;;;;;16.67;4.80;;;;;;;;;;4952464;28;20565;-33
2022/03/14 02:27:06;;;;;;;21.88;5.75;;;;;;;;;;4935495;28;20110;-33
2022/03/14 02:29:33;;;;;;;15.18;5.28;;;;;;;;;;4952506;28;20031;-33
2022/03/14 02:32:00;;;;;;;19.55;5.53;;;;;;;;;;4952016;28;20031;-31
2022/03/14 02:34:27;;;;;;;16.88;5.07;;;;;;;;;;4956517;29;20035;-32
2022/03/14 02:36:54;;;;;;;18.33;5.20;;;;;;;;;;4956723;29;20130;-32
2022/03/14 02:39:21;;;;;;;17.23;5.72;;;;;;;;;;4956577;29;20027;-32
2022/03/14 02:41:48;;;;;;;24.85;6.07;;;;;;;;;;4957138;29;20114;-32
2022/03/14 02:44:15;;;;;;;13.85;5.22;;;;;;;;;;4956740;29;20031;-32
2022/03/14 02:46:43;;;;;;;18.55;5.30;;;;;;;;;;4957269;29;20035;-32
2022/03/14 02:49:10;;;;;;;17.92;5.45;;;;;;;;;;4956564;29;20027;-32
2022/03/14 02:51:38;;;;;;;16.45;5.25;;;;;;;;;;4956979;29;20114;-32
2022/03/14 02:54:05;;;;;;;18.45;5.53;;;;;;;;;;4956369;29;20402;-32
2022/03/14 02:56:34;;;;;;;15.90;5.55;;;;;;;;;;4956927;29;20050;-32
2022/03/14 02:59:01;;;;;;;15.73;5.05;;;;;;;;;;4956480;29;20514;-32
2022/03/14 03:01:28;;;;;;;14.35;4.78;;;;;;;;;;4956647;28;20034;-32
2022/03/14 03:03:55;;;;;;;18.83;5.47;;;;;;;;;;4956839;28;20028;-32
2022/03/14 03:06:22;;;;;;;15.65;4.93;;;;;;;;;;4956407;29;20138;-32
2022/03/14 03:08:53;;;;;;;21.20;5.20;;;;;;;;;;4956476;29;20083;-32
2022/03/14 03:11:21;;;;;;;14.73;5.38;;;;;;;;;;4956278;29;20027;-32
2022/03/14 03:13:49;;;;;;;16.55;5.22;;;;;;;;;;4956567;29;20438;-32
2022/03/14 03:16:16;;;;;;;16.35;5.10;;;;;;;;;;4956265;29;20537;-32
2022/03/14 03:18:44;;;;;;;14.30;5.07;;;;;;;;;;4956505;29;20027;-32
2022/03/14 03:21:11;;;;;;;18.58;5.63;;;;;;;;;;4955956;29;20082;-32
2022/03/14 03:23:38;;;;;;;14.32;5.43;;;;;;;;;;4955892;28;20035;-32
2022/03/14 03:26:05;;;;;;;14.50;4.95;;;;;;;;;;4956389;29;20027;-32
2022/03/14 03:28:35;;;;;;;14.88;4.85;;;;;;;;;;4955983;29;20034;-32
2022/03/14 03:31:09;;;;;;;15.10;5.22;;;;;;;;;;4956381;29;20038;-32
2022/03/14 03:33:36;;;;;;;11.65;4.70;;;;;;;;;;4955881;29;20034;-32
2022/03/14 03:36:04;;;;;;;12.70;5.30;;;;;;;;;;4956087;29;20040;-32
2022/03/14 03:38:31;;;;;;;16.50;4.72;;;;;;;;;;4956406;29;20556;-32
2022/03/14 03:40:58;;;;;;;11.85;4.35;;;;;;;;;;4955586;29;20182;-32
2022/03/14 03:43:25;;;;;;;13.32;4.78;;;;;;;;;;4955742;28;20509;-32
2022/03/14 03:45:52;;;;;;;12.65;4.45;;;;;;;;;;4955648;29;20166;-32
2022/03/14 03:48:20;;;;;;;12.10;4.70;;;;;;;;;;4956102;28;20036;-32
2022/03/14 03:50:47;;;;;;;13.43;4.68;;;;;;;;;;4955361;29;20505;-32
2022/03/14 03:53:14;;;;;;;11.30;4.85;;;;;;;;;;4955500;29;20054;-32
2022/03/14 03:55:41;;;;;;;16.00;5.20;;;;;;;;;;4955872;29;20162;-32
2022/03/14 03:58:08;;;;;;;14.02;4.07;;;;;;;;;;4955259;29;20054;-32
2022/03/14 04:00:35;;;;;;;15.13;4.72;;;;;;;;;;4955991;29;20039;-32
2022/03/14 04:03:02;;;;;;;11.13;4.13;;;;;;;;;;4955261;29;20023;-32
2022/03/14 04:05:30;;;;;;;14.02;4.28;;;;;;;;;;4955692;29;20070;-32
2022/03/14 04:08:00;;;;;;;14.35;4.50;;;;;;;;;;4955045;29;20035;-32
2022/03/14 04:10:30;;;;;;;15.02;4.30;;;;;;;;;;4938530;29;20039;-32
2022/03/14 04:13:03;;;;;;;10.48;4.35;;;;;;;;;;4954812;29;20038;-32
2022/03/14 04:15:30;;;;;;;12.13;4.78;;;;;;;;;;4955544;29;20462;-32
2022/03/14 04:18:02;;;;;;;9.38;4.43;;;;;;;;;;4955557;29;20036;-32
2022/03/14 04:20:28;;;;;;;;;;;;;;;;;;4955346;29;20028;-32
2022/03/14 04:22:55;;;;;;;10.95;4.50;;;;;;;;;;4954800;29;19910;-32
2022/03/14 04:25:22;;;;;;;10.32;3.75;;;;;;;;;;4955474;29;20074;-32
2022/03/14 04:27:49;;;;;;;11.57;4.00;;;;;;;;;;4955166;29;20051;-32
2022/03/14 04:30:16;;;;;;;8.77;3.60;;;;;;;;;;4954805;29;20019;-32
2022/03/14 04:32:44;;;;;;;8.20;4.00;;;;;;;;;;4955143;29;20406;-32
2022/03/14 04:35:11;;;;;;;8.05;3.55;;;;;;;;;;4954418;29;20047;-32
2022/03/14 04:37:38;;;;;;;7.50;3.45;;;;;;;;;;4954641;29;20031;-32
2022/03/14 04:40:06;;;;;;;8.23;3.10;;;;;;;;;;4954879;29;20123;-32
2022/03/14 04:42:32;;;;;;;11.63;3.45;;;;;;;;;;4955035;29;20027;-32
2022/03/14 04:44:59;;;;;;;8.45;3.80;;;;;;;;;;4954374;29;20506;-32
2022/03/14 04:47:26;;;;;;;10.25;3.50;;;;;;;;;;4954993;29;20027;-32
2022/03/14 04:49:53;;;;;;;12.32;4.05;;;;;;;;;;4954547;28;20035;-32
2022/03/14 04:52:21;;;;;;;9.25;3.67;;;;;;;;;;4955045;28;20029;-32
2022/03/14 04:54:48;;;;;;;9.88;3.67;;;;;;;;;;4953662;28;20379;-32
2022/03/14 04:57:15;;;;;;;9.65;3.25;;;;;;;;;;4954992;29;20386;-32
2022/03/14 04:59:42;;;;;;;9.30;3.92;;;;;;;;;;4954377;28;20043;-32
2022/03/14 05:02:10;;;;;;;8.40;3.63;;;;;;;;;;4954894;29;20034;-31
2022/03/14 05:04:38;;;;;;;7.80;3.38;;;;;;;;;;4936678;29;20450;-32
2022/03/14 05:07:08;;;;;;;7.72;3.10;;;;;;;;;;4936911;29;20085;-32
2022/03/14 05:09:35;;;;;;;8.50;3.30;;;;;;;;;;4954378;29;20035;-32
2022/03/14 05:12:02;;;;;;;6.38;3.08;;;;;;;;;;4954022;29;20031;-32
2022/03/14 05:14:30;;;;;;;8.23;3.17;;;;;;;;;;4937365;29;20713;-31
2022/03/14 05:16:57;;;;;;;8.30;3.60;;;;;;;;;;4954172;29;20049;-32
2022/03/14 05:19:27;;;;;;;7.00;2.83;;;;;;;;;;4954382;29;20172;-32
2022/03/14 05:21:54;;;;;;;6.47;2.70;;;;;;;;;;4953910;29;20102;-32
2022/03/14 05:24:20;;;;;;;5.40;3.00;;;;;;;;;;4954551;29;20023;-32
2022/03/14 05:26:49;;;;;;;9.20;3.10;;;;;;;;;;4954293;29;20030;-32
2022/03/14 05:29:16;;;;;;;6.15;3.30;;;;;;;;;;4953997;29;20568;-32
2022/03/14 05:31:43;;;;;;;9.50;3.15;;;;;;;;;;4937106;29;20027;-31
2022/03/14 05:34:10;;;;;;;6.30;2.83;;;;;;;;;;4953681;29;20031;-32
2022/03/14 05:36:37;;;;;;;7.75;2.65;;;;;;;;;;4954287;29;20033;-32
2022/03/14 05:39:05;;;;;;;7.07;2.97;;;;;;;;;;4953696;29;20032;-32
2022/03/14 05:41:32;;;;;;;5.82;3.00;;;;;;;;;;4954414;29;20027;-32
2022/03/14 05:43:59;;;;;;;7.80;3.00;;;;;;;;;;4953513;29;20020;-32
2022/03/14 05:46:26;;;;;;;6.85;2.80;;;;;;;;;;4954178;29;20070;-31
2022/03/14 05:48:53;;;;;;;7.75;2.65;;;;;;;;;;4953767;29;20028;-31
2022/03/14 05:51:20;;;;;;;9.40;3.38;;;;;;;;;;4954359;29;20055;-32
2022/03/14 05:53:47;;;;;;;6.07;2.90;;;;;;;;;;4953460;29;20548;-32
2022/03/14 05:56:14;;;;;;;6.18;2.70;;;;;;;;;;4936962;29;20055;-31
2022/03/14 05:58:41;;;;;;;6.47;2.55;;;;;;;;;;4954190;29;20131;-32
2022/03/14 06:01:08;;;;;;;6.28;2.80;;;;;;;;;;4953765;29;20039;-32
2022/03/14 06:03:35;;;;;;;5.50;2.60;;;;;;;;;;4954025;29;20106;-30
2022/03/14 06:06:02;;;;;;;4.45;2.30;;;;;;;;;;4953573;28;20043;-32
2022/03/14 06:08:29;;;;;;;5.93;2.53;;;;;;;;;;4958089;29;20038;-31
2022/03/14 06:10:56;;;;;;;6.50;2.58;;;;;;;;;;4957773;28;20027;-32
2022/03/14 06:13:23;;;;;;;6.75;2.63;;;;;;;;;;4957240;28;20063;-33
2022/03/14 06:15:50;;;;;;;9.98;2.75;;;;;;;;;;4957719;29;20034;-33
2022/03/14 06:18:17;;;;;;;5.03;2.47;;;;;;;;;;4957136;29;20031;-33
2022/03/14 06:20:45;;;;;;;5.75;2.58;;;;;;;;;;4957580;29;20039;-33
2022/03/14 06:23:12;;;;;;;6.07;2.25;;;;;;;;;;4957362;29;20054;-33
2022/03/14 06:25:39;;;;;;;5.45;2.30;;;;;;;;;;4956938;28;20039;-32
2022/03/14 06:28:05;;;;;;;5.18;2.58;;;;;;;;;;4956946;29;20039;-32
2022/03/14 06:30:32;;;;;;;5.18;2.67;;;;;;;;;;4957537;29;20490;-33
2022/03/14 06:32:59;;;;;;;5.30;2.20;;;;;;;;;;4957281;29;20103;-33
2022/03/14 06:35:27;;;;;;;8.75;2.30;;;;;;;;;;4956934;28;20030;-32
2022/03/14 06:37:54;;;;;;;6.13;2.40;;;;;;;;;;5127337;23;20041;-39
2022/03/14 06:40:21;;;;;;;4.45;2.53;;;;;;;;;;5015125;28;20430;-40
2022/03/14 06:42:52;;;;;;;4.97;2.33;;;;;;;;;;5015265;28;20096;-41
2022/03/14 06:45:23;;;;;;;6.07;2.25;;;;;;;;;;5015000;28;20045;-38
2022/03/14 06:47:51;;;;;;;5.07;2.17;;;;;;;;;;5015445;28;20030;-38
2022/03/14 06:50:18;;;;;;;5.07;2.35;;;;;;;;;;5014893;28;20029;-40
2022/03/14 06:52:45;;;;;;;4.82;2.30;;;;;;;;;;5010451;28;20025;-36
2022/03/14 06:55:13;;;;;;;3.97;2.10;;;;;;;;;;5001107;28;20045;-44
2022/03/14 06:57:40;;;;;;;3.58;2.08;;;;;;;;;;5014079;28;20034;-40
2022/03/14 07:00:07;;;;;;;3.60;2.17;;;;;;;;;;5012139;28;20022;-38
2022/03/14 07:02:35;;;;;;;4.40;2.10;;;;;;;;;;5008586;28;20037;-41
2022/03/14 07:05:02;;;;;;;4.22;2.08;;;;;;;;;;5008413;28;20086;-39
2022/03/14 07:07:29;;;;;;;5.22;2.10;;;;;;;;;;5014957;28;20025;-39
2022/03/14 07:09:57;;;;;;;4.45;2.15;;;;;;;;;;5014531;28;20036;-40
2022/03/14 07:12:24;;;;;;;5.68;2.33;;;;;;;;;;5015178;28;20026;-39
2022/03/14 07:14:51;;;;;;;3.92;1.77;;;;;;;;;;5014496;28;20650;-39
2022/03/14 07:17:18;;;;;;;3.53;1.85;;;;;;;;;;5014580;28;20113;-40
2022/03/14 07:19:46;;;;;;;5.90;1.88;;;;;;;;;;5014359;28;20627;-40
2022/03/14 07:22:19;;;;;;;3.83;2.13;;;;;;;;;;5013966;28;20072;-40
2022/03/14 07:24:47;;;;;;;4.38;2.13;;;;;;;;;;5015041;28;20018;-40
2022/03/14 07:27:15;;;;;;;4.53;2.22;;;;;;;;;;4996110;28;20384;-40
2022/03/14 07:29:42;;;;;;;5.30;2.05;;;;;;;;;;5014573;28;20056;-39
2022/03/14 07:32:09;;;;;;;5.88;2.17;;;;;;;;;;5013991;28;20058;-39
2022/03/14 07:34:36;;;;;;;3.25;1.83;;;;;;;;;;5013837;28;20024;-40
2022/03/14 07:37:03;;;;;;;3.65;2.10;;;;;;;;;;5014211;28;20034;-39
2022/03/14 07:39:31;;;;;;;4.50;1.70;;;;;;;;;;5013911;28;20095;-40
2022/03/14 07:41:57;;;;;;;3.55;2.22;;;;;;;;;;5014368;28;20105;-39
2022/03/14 07:44:24;;;;;;;3.78;1.90;;;;;;;;;;4996430;28;20388;-40
2022/03/14 07:46:51;;;;;;;3.38;1.77;;;;;;;;;;5013716;28;20033;-40
2022/03/14 07:49:20;;;;;;;4.07;1.75;;;;;;;;;;5014492;28;20026;-40
2022/03/14 07:51:47;;;;;;;4.57;2.25;;;;;;;;;;5014256;28;20037;-41
2022/03/14 07:54:14;;;;;;;3.63;1.70;;;;;;;;;;5013888;28;20032;-39
2022/03/14 07:56:42;;;;;;;3.75;1.92;;;;;;;;;;5013035;28;20022;-39
2022/03/14 07:59:09;;;;;;;3.67;1.85;;;;;;;;;;5013887;28;20557;-38
2022/03/14 08:01:36;;;;;;;2.83;1.55;;;;;;;;;;5014114;28;20034;-38
2022/03/14 08:04:04;;;;;;;3.20;1.80;;;;;;;;;;5013124;28;20097;-39
2022/03/14 08:06:41;;;;;;;2.05;1.33;;;;;;;;;;5013930;28;20033;-39
2022/03/14 08:09:09;;;;;;;3.13;1.80;;;;;;;;;;5013010;28;20038;-40
2022/03/14 08:11:38;;;;;;;3.15;1.60;;;;;;;;;;5013923;28;20100;-41
2022/03/14 08:14:06;;;;;;;3.92;2.00;;;;;;;;;;5009443;28;20018;-40
2022/03/14 08:16:33;;;;;;;3.70;1.65;;;;;;;;;;4999240;28;20035;-39
2022/03/14 08:19:00;;;;;;;3.30;1.63;;;;;;;;;;5009910;28;20030;-39
2022/03/14 08:21:27;;;;;;;2.85;1.40;;;;;;;;;;5012471;28;20061;-40
2022/03/14 08:23:54;;;;;;;3.60;1.65;;;;;;;;;;5013299;28;20025;-40
2022/03/14 08:26:22;;;;;;;3.17;1.50;;;;;;;;;;5013337;28;20049;-38
2022/03/14 08:28:49;;;;;;;3.63;1.38;;;;;;;;;;5011933;28;20536;-38
2022/03/14 08:31:18;;;;;;;2.33;1.40;;;;;;;;;;5012280;28;20558;-39
2022/03/14 08:33:45;;;;;;;4.63;1.92;;;;;;;;;;5013139;28;20014;-39
2022/03/14 08:36:12;;;;;;;3.47;1.40;;;;;;;;;;5013085;28;20022;-38
2022/03/14 08:38:40;;;;;;;2.38;1.33;;;;;;;;;;5011850;28;20404;-38
2022/03/14 08:41:08;;;;;;;3.88;1.65;;;;;;;;;;5011960;28;20495;-40
2022/03/14 08:43:34;;;;;;;1.92;1.38;;;;;;;;;;5013226;28;20028;-39
2022/03/14 08:46:01;;;;;;;3.63;1.40;;;;;;;;;;5012247;28;20036;-40
2022/03/14 08:48:30;;;;;;;2.00;1.60;;;;;;;;;;5012980;28;20160;-39
2022/03/14 08:50:57;;;;;;;4.25;1.65;;;;;;;;;;5011908;28;20117;-38
2022/03/14 08:53:23;;;;;;;2.65;1.67;;;;;;;;;;5013079;28;20582;-39
2022/03/14 08:55:51;;;;;;;3.65;1.42;;;;;;;;;;5011679;28;20112;-39
2022/03/14 08:58:19;;;;;;;2.50;1.50;;;;;;;;;;5012601;28;20030;-39
2022/03/14 09:00:46;;;;;;;2.03;1.30;;;;;;;;;;5011850;28;20476;-39
2022/03/14 09:03:13;;;;;;;3.20;1.58;;;;;;;;;;5012470;28;20030;-40
2022/03/14 09:05:40;;;;;;;2.22;1.30;;;;;;;;;;5012512;28;20022;-39
2022/03/14 09:08:07;;;;;;;3.42;1.40;;;;;;;;;;5012299;28;20022;-38
2022/03/14 09:10:36;;;;;;;2.35;1.40;;;;;;;;;;5011779;28;20530;-40
2022/03/14 09:13:04;;;;;;;1.95;1.40;;;;;;;;;;5012435;28;20104;-40
2022/03/14 09:15:31;;;;;;;2.80;1.27;;;;;;;;;;5011853;28;20549;-38
2022/03/14 09:18:03;;;;;;;2.75;1.42;;;;;;;;;;5012041;28;20539;-40
2022/03/14 09:20:31;;;;;;;2.45;1.48;;;;;;;;;;5011884;28;20036;-39
2022/03/14 09:22:58;;;;;;;3.55;1.30;;;;;;;;;;5012268;28;20026;-40
2022/03/14 09:25:25;;;;;;;2.78;1.52;;;;;;;;;;5006874;28;20051;-40
2022/03/14 09:27:53;;;;;;;2.90;1.20;;;;;;;;;;5002498;28;20096;-38
2022/03/14 09:30:20;;;;;;;1.73;1.20;;;;;;;;;;5009593;28;20030;-39
2022/03/14 09:32:47;;;;;;;2.03;1.35;;;;;;;;;;5012404;28;20026;-38
2022/03/14 09:35:15;;;;;;;2.55;1.08;;;;;;;;;;5012691;28;20022;-39
2022/03/14 09:37:42;;;;;;;1.90;1.15;;;;;;;;;;5011577;28;20057;-40
2022/03/14 09:40:10;;;;;;;2.80;1.20;;;;;;;;;;5012682;28;20026;-40
2022/03/14 09:42:38;;;;;;;3.90;1.33;;;;;;;;;;5017945;28;20029;-39
2022/03/14 09:45:06;;;;;;;2.03;1.23;;;;;;;;;;5018565;28;20030;-38
2022/03/14 09:47:40;;;;;;;3.90;1.40;;;;;;;;;;5018431;28;20203;-39
2022/03/14 09:50:14;;;;;;;2.20;1.13;;;;;;;;;;5019054;28;20385;-37
2022/03/14 09:52:45;;;;;;;3.67;1.20;;;;;;;;;;5018202;28;20059;-40
2022/03/14 09:55:12;;;;;;;2.80;1.42;;;;;;;;;;5018579;28;20042;-38
2022/03/14 09:57:40;;;;;;;2.65;1.40;;;;;;;;;;5018954;28;20021;-38
2022/03/14 10:00:10;;;;;;;3.90;1.27;;;;;;;;;;5019043;28;20476;-40
2022/03/14 10:02:37;;;;;;;2.50;1.33;;;;;;;;;;5017949;28;20069;-39
2022/03/14 10:05:07;;;;;;;2.25;1.15;;;;;;;;;;5019027;28;20029;-42
2022/03/14 10:07:34;;;;;;;1.77;1.05;;;;;;;;;;5017982;28;20034;-39
2022/03/14 10:10:04;;;;;;;2.78;1.20;;;;;;;;;;5018904;28;20025;-40
2022/03/14 10:12:32;;;;;;;3.25;1.25;;;;;;;;;;5018368;28;20032;-39
2022/03/14 10:15:02;;;;;;;3.05;1.10;;;;;;;;;;5018518;28;20030;-39
2022/03/14 10:17:31;;;;;;;4.55;1.60;;;;;;;;;;5017915;28;20101;-39
2022/03/14 10:19:59;;;;;;;2.50;1.10;;;;;;;;;;5018768;28;20034;-40
2022/03/14 10:22:33;;;;;;;2.50;1.30;;;;;;;;;;5018065;28;20072;-39
2022/03/14 10:25:11;;;;;;;2.33;1.05;;;;;;;;;;5018569;28;20034;-38
2022/03/14 10:27:39;;;;;;;2.65;1.05;;;;;;;;;;5017785;28;20097;-39
2022/03/14 10:30:08;;;;;;;1.80;1.10;;;;;;;;;;5018278;28;20029;-39
2022/03/14 10:32:36;;;;;;;4.05;1.30;;;;;;;;;;5017915;28;20029;-40
2022/03/14 10:35:08;;;;;;;2.90;1.25;;;;;;;;;;5018340;28;20436;-40
2022/03/14 10:37:36;;;;;;;2.55;1.05;;;;;;;;;;5017581;28;20431;-40
2022/03/14 10:40:07;;;;;;;2.30;1.00;;;;;;;;;;5018650;28;20022;-40
2022/03/14 10:42:41;;;;;;;1.70;1.20;;;;;;;;;;5017976;28;20034;-38
2022/03/14 10:45:12;;;;;;;2.70;1.20;;;;;;;;;;5018862;28;20025;-39
2022/03/14 10:47:44;;;;;;;3.08;1.35;;;;;;;;;;5017530;28;20053;-39
2022/03/14 10:50:11;;;;;;;;;;;;;;;;;;5018714;28;20040;-39
2022/03/14 10:52:37;;;;;;;3.58;1.20;;;;;;;;;;5011667;28;19905;-35
2022/03/14 10:55:12;;;;;;;2.25;1.00;;;;;;;;;;5010393;28;20491;-36
2022/03/14 10:57:47;;;;;;;4.13;1.23;;;;;;;;;;5014493;28;20038;-33
2022/03/14 11:00:14;;;;;;;1.52;0.93;;;;;;;;;;5014056;28;20026;-34
2022/03/14 11:02:41;;;;;;;5.57;1.00;;;;;;;;;;5013687;28;20383;-35
2022/03/14 11:05:09;;;;;;;2.15;1.00;;;;;;;;;;5013808;28;20022;-34
2022/03/14 11:07:38;;;;;;;3.15;1.30;;;;;;;;;;5012703;28;20106;-34
2022/03/14 11:10:07;;;;;;;3.85;1.10;;;;;;;;;;5013260;28;20040;-35
2022/03/14 11:12:34;;;;;;;8.07;1.50;;;;;;;;;;5005272;28;20101;-36
2022/03/14 11:15:05;;;;;;;7.82;1.30;;;;;;;;;;5013844;28;20025;-36
2022/03/14 11:17:33;;;;;;;3.55;1.15;;;;;;;;;;5013189;28;20049;-35
2022/03/14 11:20:01;;;;;;;3.80;1.20;;;;;;;;;;5013598;28;20025;-35
2022/03/14 11:22:29;;;;;;;3.13;1.40;;;;;;;;;;4989029;28;20370;-35
2022/03/14 11:24:59;;;;;;;2.40;0.98;;;;;;;;;;5007540;28;20026;-37
2022/03/14 11:27:31;;;;;;;4.35;1.20;;;;;;;;;;5010012;28;20040;-36
2022/03/14 11:30:08;;;;;;;1.50;1.10;;;;;;;;;;5013569;28;20026;-33
2022/03/14 11:32:41;;;;;;;2.40;1.30;;;;;;;;;;5012532;28;20026;-45
2022/03/14 11:35:09;;;;;;;6.43;1.15;;;;;;;;;;5007547;28;20038;-44
2022/03/14 11:37:42;;;;;;;6.32;1.38;;;;;;;;;;5000207;28;20141;-45
2022/03/14 11:40:09;;;;;;;6.05;1.30;;;;;;;;;;4996084;28;20145;-42
2022/03/14 11:42:36;;;;;;;3.38;1.17;;;;;;;;;;5004535;28;20034;-41
2022/03/14 11:45:05;;;;;;;3.53;1.20;;;;;;;;;;5012511;28;20033;-42
2022/03/14 11:47:32;;;;;;;3.28;1.38;;;;;;;;;;5012012;28;20061;-42
2022/03/14 11:50:00;;;;;;;2.10;0.95;;;;;;;;;;5012717;28;20080;-43
2022/03/14 11:52:36;;;;;;;3.25;1.05;;;;;;;;;;5011961;28;20037;-39
2022/03/14 11:55:06;;;;;;;4.85;1.13;;;;;;;;;;5010768;28;20057;-42
2022/03/14 11:57:37;;;;;;;3.55;1.20;;;;;;;;;;5012195;28;20037;-41
2022/03/14 12:00:27;;;;;;;1.90;1.02;;;;;;;;;;5012118;28;20033;-42
2022/03/14 12:03:05;;;;;;;1.50;1.05;;;;;;;;;;5011970;28;20073;-37
2022/03/14 12:05:32;;;;;;;2.53;1.05;;;;;;;;;;4999155;28;20034;-33
2022/03/14 12:07:59;;;;;;;2.00;1.00;;;;;;;;;;4993711;28;20035;-33
2022/03/14 12:10:30;;;;;;;2.22;1.00;;;;;;;;;;4994096;28;20053;-33
2022/03/14 12:13:01;;;;;;;5.05;1.20;;;;;;;;;;4993199;28;20109;-33
2022/03/14 12:15:44;;;;;;;10.18;1.50;;;;;;;;;;4992721;28;20127;-44
2022/03/14 12:18:27;;;;;;;9.07;1.60;;;;;;;;;;4991947;28;20030;-44
2022/03/14 12:21:04;;;;;;;14.65;1.48;;;;;;;;;;4992932;28;20038;-44
2022/03/14 12:23:35;;;;;;;9.10;1.88;;;;;;;;;;4992256;28;20038;-43
2022/03/14 12:26:03;;;;;;;6.47;1.17;;;;;;;;;;4992892;28;20049;-43
2022/03/14 12:28:37;;;;;;;12.93;1.40;;;;;;;;;;4991430;28;20038;-43
2022/03/14 12:31:05;;;;;;;6.78;1.40;;;;;;;;;;4991571;28;20035;-44
2022/03/14 12:33:36;;;;;;;11.20;1.33;;;;;;;;;;4993006;28;20362;-44
2022/03/14 12:36:24;;;;;;;11.25;1.60;;;;;;;;;;4992392;28;20041;-44
2022/03/14 12:39:09;;;;;;;6.22;1.33;;;;;;;;;;4992769;28;20050;-44
2022/03/14 12:41:46;;;;;;;17.15;2.28;;;;;;;;;;4992504;28;20026;-45
2022/03/14 12:44:17;;;;;;;8.80;1.45;;;;;;;;;;4992803;28;20042;-42
2022/03/14 12:46:45;;;;;;;14.05;1.50;;;;;;;;;;4992651;28;20041;-44
2022/03/14 12:49:12;;;;;;;6.28;1.30;;;;;;;;;;4992218;28;20485;-44
2022/03/14 12:51:39;;;;;;;11.10;1.60;;;;;;;;;;4993117;28;20497;-44
2022/03/14 12:54:06;;;;;;;10.52;1.95;;;;;;;;;;4992165;28;20033;-44
2022/03/14 12:56:37;;;;;;;15.68;1.65;;;;;;;;;;4992220;28;20100;-38
2022/03/14 12:59:13;;;;;;;20.00;1.98;;;;;;;;;;4992969;28;20105;-41
2022/03/14 13:01:43;;;;;;;83.65;5.90;;;;;;;;;;4991673;28;20034;-38
2022/03/14 13:04:14;;;;;;;17.85;2.00;;;;;;;;;;4992818;28;20039;-45
2022/03/14 13:06:48;;;;;;;17.60;1.80;;;;;;;;;;4992051;28;20515;-41
2022/03/14 13:09:40;;;;;;;17.13;1.92;;;;;;;;;;4991520;28;20113;-39
2022/03/14 13:12:09;;;;;;;16.40;1.67;;;;;;;;;;4988244;28;20514;-39
2022/03/14 13:14:41;;;;;;;15.32;2.10;;;;;;;;;;4974231;28;20481;-38
2022/03/14 13:17:08;;;;;;;9.65;1.98;;;;;;;;;;4991244;28;20488;-39
2022/03/14 13:19:35;;;;;;;14.48;1.98;;;;;;;;;;4992036;28;20030;-38
2022/03/14 13:22:14;;;;;;;8.40;1.70;;;;;;;;;;4992090;28;20033;-38
2022/03/14 13:24:45;;;;;;;19.88;2.10;;;;;;;;;;4992126;28;20042;-35
2022/03/14 13:27:12;;;;;;;31.35;2.75;;;;;;;;;;4990520;28;20022;-44
2022/03/14 13:29:43;;;;;;;26.35;2.15;;;;;;;;;;4991722;28;20617;-44
2022/03/14 13:32:16;;;;;;;20.33;2.80;;;;;;;;;;4991441;28;20038;-33
2022/03/14 13:34:43;;;;;;;62.42;5.72;;;;;;;;;;4992848;28;20096;-44
2022/03/14 13:37:11;;;;;;;37.42;3.40;;;;;;;;;;4992552;28;20378;-45
2022/03/14 13:39:41;;;;;;;32.58;3.30;;;;;;;;;;4992803;28;20038;-43
2022/03/14 13:42:08;;;;;;;28.10;3.00;;;;;;;;;;4992911;28;20041;-45
2022/03/14 13:44:35;;;;;;;23.67;2.55;;;;;;;;;;4991235;28;20049;-44
2022/03/14 13:47:02;;;;;;;19.33;2.00;;;;;;;;;;5010622;28;20041;-43
2022/03/14 13:49:30;;;;;;;21.88;2.30;;;;;;;;;;5011555;28;20022;-42
2022/03/14 13:52:00;;;;;;;23.48;2.30;;;;;;;;;;5010030;28;20030;-43
2022/03/14 13:54:28;;;;;;;23.15;2.80;;;;;;;;;;5011781;28;20026;-43
2022/03/14 13:56:59;;;;;;;13.88;1.73;;;;;;;;;;5006167;28;20123;-46
2022/03/14 13:59:34;;;;;;;32.50;2.93;;;;;;;;;;5011353;28;20029;-41
2022/03/14 14:02:04;;;;;;;22.48;2.35;;;;;;;;;;5011304;28;20034;-39
2022/03/14 14:04:32;;;;;;;25.77;2.38;;;;;;;;;;5011553;28;20034;-39
2022/03/14 14:06:59;;;;;;;21.38;2.53;;;;;;;;;;4993389;28;20033;-39
2022/03/14 14:09:28;;;;;;;15.15;1.85;;;;;;;;;;5011184;28;20030;-45
2022/03/14 14:12:13;;;;;;;50.10;3.92;;;;;;;;;;5011093;28;20026;-44
2022/03/14 14:14:40;;;;;;;23.77;2.72;;;;;;;;;;5010828;28;20493;-43
2022/03/14 14:17:15;;;;;;;19.92;2.63;;;;;;;;;;5011366;28;20054;-42
2022/03/14 14:20:01;;;;;;;23.00;2.92;;;;;;;;;;5011191;28;20117;-44
2022/03/14 14:22:29;;;;;;;23.80;3.80;;;;;;;;;;5010921;28;20030;-38
2022/03/14 14:24:57;;;;;;;30.00;3.58;;;;;;;;;;5010557;28;20401;-45
2022/03/14 14:27:26;;;;;;;28.50;3.45;;;;;;;;;;4994644;28;20464;-46
2022/03/14 14:30:00;;;;;;;25.42;3.55;;;;;;;;;;5015087;28;20065;-44
2022/03/14 14:32:29;;;;;;;33.67;3.85;;;;;;;;;;5015247;28;20042;-42
2022/03/14 14:34:57;;;;;;;26.10;3.28;;;;;;;;;;5014097;28;20048;-45
2022/03/14 14:40:40;;;;;;;28.23;3.08;;;;;;;;;;4985937;28;20149;-41
2022/03/14 14:43:07;;;;;;;23.63;2.97;;;;;;;;;;5014521;28;20033;-36
2022/03/14 14:45:34;;;;;;;24.67;2.83;;;;;;;;;;5013485;28;20042;-45
2022/03/14 14:48:02;;;;;;;22.42;2.58;;;;;;;;;;5014766;28;20029;-37
2022/03/14 14:50:30;;;;;;;25.23;2.80;;;;;;;;;;5014822;28;20069;-36